CheckWX is a tool to help pilots better visualize weather data.  It is not intended as a substitute for an official pre-flight weather briefing.

13:44:59 UTC

KBPC METAR
Pampa
Pampa, Texas, USA
Current

30 mins ago

KBPC 201315Z AUTO 22012G16KT 7SM CLR 27/12 A2989 RMK AO2
Observed
Jul-20 @ 13:15 UTC
Wind
  • 220° at 12 KTS
  • Gusting to 16 KTS
Visibility
7 SM
Flight Rules
VFR
Cloud Levels
  • Clear skies
Temperature
27°C / 81°F
Dewpoint
12°C / 54°F
Humidity
39%
Altimeter
29.89" Hg
Pressure
1012.22 hPa
Previous

50 mins ago

KBPC 201255Z AUTO 22010KT 7SM CLR 26/12 A2989 RMK AO2
Observed
Jul-20 @ 12:55 UTC
Wind
  • 220° at 10 KTS
Visibility
7 SM
Flight Rules
VFR
Cloud Levels
  • Clear skies
Temperature
26°C / 79°F
Dewpoint
12°C / 54°F
Humidity
42%
Altimeter
29.89" Hg
Pressure
1012.22 hPa
Previous

1 hour ago

KBPC 201235Z AUTO 22009KT 7SM CLR 26/12 A2989 RMK AO2
Observed
Jul-20 @ 12:35 UTC
Wind
  • 220° at 9 KTS
Visibility
7 SM
Flight Rules
VFR
Cloud Levels
  • Clear skies
Temperature
26°C / 79°F
Dewpoint
12°C / 54°F
Humidity
42%
Altimeter
29.89" Hg
Pressure
1012.22 hPa